Rye Valley, Oregon
Current Conditions -  °F | °C
As of 3:53 PM on Wednesday 22 Oct 2014 (Local Time) from KBKE Reporting Station
Light Rain Light Rain  
Wind Chill: 57°   Ceiling: 10000
Heat Index: 57°   Visibility: 10mi
Dew Point: 33°   Wind: 18mph
Humidity: 40%   Direction: 110°ESE
Pressure: 29.96"   Gusts: NA
Location:  44.4221°N, 117.451°W
Report Text: KBKE 222253Z AUTO 11016KT 10SM -RA BKN100 14/01 A2996 RMK AO2 SLP147 P0000 T01390006 $
Loading
Personal Weather Stations






























Interactive Weather Map
Tropical Storm Tracking
New forecast layout! Learn more

10-Day Weather Forecast

Advertisements
Track Severe Weather on mobile